Time;durP1;ratioP1;P1;durP2;ratioP2;P2;SDS_P1;SDS_P2;PMS_P1;PMS_P2;Temp;Humidity;BMP_temperature;BMP_pressure;BME280_temperature;BME280_humidity;BME280_pressure;Samples;Min_cycle;Max_cycle;Signal;HPM_P1;HPM_P2
2021/08/31 00:00:26;;;;;;;37.33;8.70;;;;;;;12.98;100.00;141206.88;5045484;28;20100;-67
2021/08/31 00:02:51;;;;;;;35.30;8.77;;;;;;;12.99;100.00;141208.09;5041113;28;20059;-67
2021/08/31 00:05:17;;;;;;;36.50;8.90;;;;;;;12.94;100.00;140856.06;5044676;28;20059;-67
2021/08/31 00:07:43;;;;;;;41.77;9.47;;;;;;;12.91;100.00;140511.38;5041919;28;20021;-67
2021/08/31 00:10:11;;;;;;;39.63;8.87;;;;;;;12.88;100.00;140504.13;5046664;28;20040;-67
2021/08/31 00:12:37;;;;;;;35.57;8.77;;;;;;;12.78;100.00;140479.94;5058912;28;20039;-67
2021/08/31 00:15:04;;;;;;;36.77;9.07;;;;;;;12.82;100.00;140828.16;5041991;28;20401;-67
2021/08/31 00:17:29;;;;;;;40.57;10.07;;;;;;;12.78;100.00;140479.94;5040790;28;20021;-67
2021/08/31 00:19:55;;;;;;;38.60;9.33;;;;;;;12.65;100.00;140108.84;5041152;28;20529;-67
2021/08/31 00:22:20;;;;;;;40.83;8.30;;;;;;;12.60;100.00;140437.59;5040655;28;20048;-67
2021/08/31 00:24:46;;;;;;;37.53;9.03;;;;;;;12.63;100.00;140443.63;5050445;28;20036;-67
2021/08/31 00:27:11;;;;;;;33.83;8.83;;;;;;;12.65;100.00;141127.84;5042230;28;20017;-68
2021/08/31 00:29:37;;;;;;;41.57;8.93;;;;;;;12.59;100.00;140773.56;5051355;28;20466;-68
2021/08/31 00:32:03;;;;;;;41.23;9.67;;;;;;;12.54;100.00;140761.47;5047042;28;20207;-68
2021/08/31 00:34:29;;;;;;;43.83;9.90;;;;;;;12.49;100.00;140409.78;5057643;28;20040;-68
2021/08/31 00:36:54;;;;;;;41.63;9.77;;;;;;;12.55;100.00;140424.28;5042484;28;20112;-68
2021/08/31 00:39:20;;;;;;;52.57;10.53;;;;;;;12.54;100.00;140762.66;5047404;28;20111;-68
2021/08/31 00:41:47;;;;;;;41.50;9.50;;;;;;;12.59;100.00;141114.44;5043075;28;20025;-68
2021/08/31 00:44:21;;;;;;;43.60;10.27;;;;;;;12.55;100.00;141104.75;5046427;28;20247;-68
2021/08/31 00:46:53;;;;;;;39.03;10.17;;;;;;;12.52;100.00;140756.63;5040894;28;20157;-68
2021/08/31 00:49:18;;;;;;;;;;;;;;;12.42;100.00;140732.34;5040721;28;20538;-68
2021/08/31 00:51:45;;;;;;;43.20;9.60;;;;;;;12.54;100.00;141101.09;5040444;28;20003;-68
2021/08/31 00:54:11;;;;;;;57.20;10.67;;;;;;;12.50;100.00;141091.38;5045800;28;20497;-68
2021/08/31 00:56:37;;;;;;;46.23;10.23;;;;;;;12.48;100.00;140746.94;5040750;28;20044;-68
2021/08/31 00:59:03;;;;;;;45.63;9.80;;;;;;;12.47;100.00;141085.28;5043407;28;20024;-68
2021/08/31 01:01:28;;;;;;;40.93;9.53;;;;;;;12.44;100.00;141076.78;5040756;28;20024;-67
2021/08/31 01:03:54;;;;;;;37.33;9.67;;;;;;;12.41;100.00;141069.50;5041502;28;20106;-67
2021/08/31 01:06:20;;;;;;;58.10;12.03;;;;;;;12.40;100.00;141068.28;5049408;28;20205;-67
2021/08/31 01:08:45;;;;;;;50.60;11.33;;;;;;;12.45;100.00;141420.03;5041841;28;20067;-67
2021/08/31 01:11:11;;;;;;;43.60;10.30;;;;;;;12.43;100.00;141753.59;5049920;28;20325;-67
2021/08/31 01:13:38;;;;;;;47.47;9.77;;;;;;;12.40;100.00;141406.66;5040913;28;20429;-67
2021/08/31 01:16:05;;;;;;;54.57;10.30;;;;;;;12.31;100.00;141387.16;5048483;28;20017;-67
2021/08/31 01:18:31;;;;;;;45.63;10.97;;;;;;;12.29;100.00;141041.53;5039059;28;20025;-67
2021/08/31 01:20:59;;;;;;;51.67;11.23;;;;;;;12.35;100.00;141395.66;5047869;28;20100;-66
2021/08/31 01:23:26;;;;;;;57.43;10.47;;;;;;;12.39;100.00;141745.06;5040239;28;20029;-67
2021/08/31 01:25:52;;;;;;;54.33;10.87;;;;;;;12.28;100.00;141039.13;5047338;28;20070;-67
2021/08/31 01:28:23;;;;;;;44.90;10.43;;;;;;;12.21;100.00;141022.06;5039529;28;20280;-67
2021/08/31 01:30:53;;;;;;;43.13;9.90;;;;;;;12.15;100.00;140669.31;5046592;28;20036;-67
2021/08/31 01:33:21;;;;;;;51.00;11.23;;;;;;;12.25;100.00;140693.56;5040187;28;20028;-67
2021/08/31 01:35:46;;;;;;;57.07;11.70;;;;;;;12.33;100.00;141731.59;5044597;28;20116;-67
2021/08/31 01:38:12;;;;;;;55.80;12.57;;;;;;;12.35;100.00;141735.25;5039105;28;20096;-67
2021/08/31 01:40:37;;;;;;;55.60;11.30;;;;;;;12.30;100.00;141384.72;5043269;28;20279;-67
2021/08/31 01:43:03;;;;;;;47.30;11.43;;;;;;;12.25;100.00;141372.56;5039690;28;20029;-67
2021/08/31 01:45:44;;;;;;;55.70;11.50;;;;;;;12.33;100.00;141390.78;5042026;28;20049;-67
2021/08/31 01:48:10;;;;;;;59.80;12.20;;;;;;;12.36;100.00;141398.13;5039711;28;20036;-67
2021/08/31 01:50:36;;;;;;;56.93;12.30;;;;;;;12.45;100.00;141758.47;5045137;28;20419;-67
2021/08/31 01:53:02;;;;;;;64.50;11.70;;;;;;;12.68;100.00;142494.31;5049629;28;20600;-67
2021/08/31 01:55:27;;;;;;;64.13;13.33;;;;;;;12.81;100.00;142866.19;5039726;28;20246;-67
2021/08/31 01:57:53;;;;;;;75.53;12.90;;;;;;;12.91;100.00;142889.56;5039268;28;20044;-67
2021/08/31 02:00:18;;;;;;;80.53;13.93;;;;;;;13.04;100.00;143260.47;5052065;28;20238;-67
2021/08/31 02:02:44;;;;;;;76.47;13.60;;;;;;;13.18;100.00;143635.22;5038659;28;20021;-67
2021/08/31 02:05:10;;;;;;;61.60;13.10;;;;;;;13.25;100.00;143312.31;5052301;28;20280;-67
2021/08/31 02:07:35;;;;;;;75.77;14.63;;;;;;;13.20;100.00;142619.56;5051253;28;20037;-67
2021/08/31 02:10:04;;;;;;;65.70;12.77;;;;;;;13.31;100.00;142986.84;5045215;28;20422;-67
2021/08/31 02:12:29;;;;;;;60.10;12.60;;;;;;;13.37;100.00;143000.41;5039319;28;20561;-67
2021/08/31 02:14:55;;;;;;;70.27;13.20;;;;;;;13.47;100.00;143707.03;5044750;28;20109;-67
2021/08/31 02:17:20;;;;;;;69.40;13.10;;;;;;;13.51;100.00;143714.44;5038999;28;20497;-67
2021/08/31 02:19:45;;;;;;;73.30;12.67;;;;;;;13.51;100.00;143374.03;5042587;28;20284;-67
2021/08/31 02:22:11;;;;;;;56.57;11.60;;;;;;;13.48;100.00;143367.84;5050478;28;20262;-67
2021/08/31 02:24:37;;;;;;;58.57;12.07;;;;;;;13.51;100.00;143714.44;5042100;28;20405;-67
2021/08/31 02:27:03;;;;;;;62.37;12.23;;;;;;;13.50;100.00;143372.78;5039083;28;20177;-67
2021/08/31 02:29:28;;;;;;;75.27;12.47;;;;;;;13.55;100.00;143725.56;5048956;28;20086;-67
2021/08/31 02:31:54;;;;;;;64.77;12.30;;;;;;;13.56;100.00;144067.25;5043587;28;20025;-67
2021/08/31 02:34:19;;;;;;;53.17;11.93;;;;;;;13.52;100.00;144397.84;5055543;28;20339;-67
2021/08/31 02:36:45;;;;;;;60.53;11.77;;;;;;;13.56;100.00;144407.78;5055508;28;20020;-67
2021/08/31 02:39:10;;;;;;;60.97;11.87;;;;;;;13.55;100.00;144405.28;5048386;28;20090;-67
2021/08/31 02:41:36;;;;;;;60.57;11.83;;;;;;;13.45;100.00;143700.84;5044392;28;20408;-67
2021/08/31 02:44:01;;;;;;;61.40;12.40;;;;;;;13.46;100.00;144043.75;5046828;28;20082;-67
2021/08/31 02:46:27;;;;;;;56.87;11.60;;;;;;;13.51;100.00;144395.38;5044959;28;20032;-67
2021/08/31 02:48:52;;;;;;;59.10;12.00;;;;;;;13.56;100.00;144407.78;5046285;28;20432;-67
2021/08/31 02:51:18;;;;;;;56.33;12.73;;;;;;;13.57;100.00;144752.09;5046174;28;20071;-67
2021/08/31 02:53:43;;;;;;;59.90;12.07;;;;;;;13.66;100.00;145115.13;5044271;28;20025;-69
2021/08/31 02:56:10;;;;;;;51.90;12.17;;;;;;;13.74;100.00;145133.88;5045674;28;20322;-67
2021/08/31 02:58:35;;;;;;;68.60;12.20;;;;;;;13.72;100.00;145128.88;5042741;28;20115;-67
2021/08/31 03:01:04;;;;;;;60.37;11.73;;;;;;;13.79;100.00;145487.09;5044652;28;20120;-67
2021/08/31 03:03:31;;;;;;;75.33;12.37;;;;;;;13.81;100.00;145492.13;5042121;28;20052;-67
2021/08/31 03:05:56;;;;;;;64.27;12.60;;;;;;;13.82;100.00;145493.38;5041300;28;20482;-67
2021/08/31 03:08:22;;;;;;;61.07;12.40;;;;;;;13.86;100.00;145844.19;5041969;28;20265;-67
2021/08/31 03:10:47;;;;;;;61.77;11.83;;;;;;;13.88;100.00;145850.47;5043475;28;20082;-67
2021/08/31 03:13:13;;;;;;;70.93;12.13;;;;;;;13.89;100.00;145852.97;5041152;28;20055;-67
2021/08/31 03:15:40;;;;;;;75.07;11.70;;;;;;;13.83;100.00;145497.13;5042204;28;20032;-67
2021/08/31 03:18:06;;;;;;;66.60;11.63;;;;;;;13.84;100.00;145840.44;5041652;28;20052;-67
2021/08/31 03:20:31;;;;;;;68.53;11.93;;;;;;;13.91;100.00;146198.84;5041265;28;20045;-67
2021/08/31 03:22:57;;;;;;;56.53;11.43;;;;;;;13.94;100.00;146547.38;5049945;28;20544;-67
2021/08/31 03:25:22;;;;;;;69.93;11.67;;;;;;;13.92;100.00;146201.38;5053518;28;20301;-67
2021/08/31 03:27:48;;;;;;;69.50;10.90;;;;;;;13.94;100.00;146547.38;5041214;28;20032;-67
2021/08/31 03:30:14;;;;;;;72.97;11.03;;;;;;;13.96;100.00;146552.41;5049576;28;20261;-67
2021/08/31 03:32:41;;;;;;;77.43;9.73;;;;;;;13.94;100.00;146205.19;5040937;28;20493;-67
2021/08/31 03:35:07;;;;;;;71.00;9.93;;;;;;;13.98;100.00;148945.03;5041621;28;20029;-67
2021/08/31 03:37:32;;;;;;;89.27;9.70;;;;;;;14.03;100.00;149981.63;5041319;28;20047;-67
2021/08/31 03:39:58;;;;;;;67.70;9.83;;;;;;;13.97;100.00;150307.47;5053085;28;20024;-67
2021/08/31 03:42:23;;;;;;;73.40;8.60;;;;;;;14.02;100.00;149637.75;5040063;28;20094;-67
2021/08/31 03:44:49;;;;;;;78.27;8.80;;;;;;;14.05;100.00;148962.97;5051897;28;20067;-67
2021/08/31 03:47:14;;;;;;;95.67;8.43;;;;;;;14.05;100.00;148962.97;5041451;28;20103;-67
2021/08/31 03:49:40;;;;;;;76.03;8.67;;;;;;;14.08;100.00;148629.41;5050447;28;20032;-67
2021/08/31 03:52:05;;;;;;;75.13;8.23;;;;;;;14.07;100.00;148966.81;5041893;28;20379;-67
2021/08/31 03:54:31;;;;;;;49.27;7.13;;;;;;;14.07;100.00;148626.84;5049351;28;20523;-67
2021/08/31 03:56:56;;;;;;;46.40;7.37;;;;;;;14.07;100.00;148968.09;5041856;28;20465;-67
2021/08/31 03:59:22;;;;;;;40.20;8.00;;;;;;;14.13;100.00;148980.88;5047838;28;20025;-67
2021/08/31 04:01:47;;;;;;;49.50;7.73;;;;;;;14.13;100.00;148982.16;5041775;28;20067;-67
2021/08/31 04:04:13;;;;;;;63.90;8.37;;;;;;;14.12;100.00;149320.91;5045802;28;20265;-67
2021/08/31 04:06:38;;;;;;;62.37;7.77;;;;;;;14.15;100.00;149668.66;5041735;28;20025;-67
2021/08/31 04:09:04;;;;;;;48.77;8.03;;;;;;;14.13;100.00;149663.50;5045298;28;20317;-67
2021/08/31 04:11:29;;;;;;;57.50;7.70;;;;;;;14.16;100.00;149671.22;5042118;28;20025;-67
2021/08/31 04:13:55;;;;;;;42.00;7.80;;;;;;;14.15;100.00;149669.94;5043182;28;20055;-67
2021/08/31 04:16:20;;;;;;;42.63;7.23;;;;;;;14.14;100.00;149324.75;5042737;28;20437;-67
2021/08/31 04:18:46;;;;;;;60.23;7.53;;;;;;;14.12;100.00;149660.94;5042515;28;20021;-67
2021/08/31 04:21:11;;;;;;;42.43;7.60;;;;;;;14.16;100.00;149671.22;5041728;28;20041;-67
2021/08/31 04:23:37;;;;;;;55.50;7.77;;;;;;;14.17;100.00;149673.78;5041015;28;20087;-67
2021/08/31 04:26:02;;;;;;;52.60;7.77;;;;;;;14.16;100.00;151040.88;5043112;28;20371;-67
2021/08/31 04:28:28;;;;;;;63.10;9.27;;;;;;;14.16;100.00;151039.59;5047911;28;20047;-67
2021/08/31 04:30:53;;;;;;;60.03;8.47;;;;;;;14.05;100.00;151013.66;5058683;28;20207;-67
2021/08/31 04:33:19;;;;;;;58.90;8.53;;;;;;;14.04;100.00;151011.00;5040049;28;20351;-67
2021/08/31 04:35:44;;;;;;;59.27;8.90;;;;;;;14.01;100.00;151001.94;5052938;28;20017;-67
2021/08/31 04:38:10;;;;;;;49.27;9.60;;;;;;;13.98;100.00;150995.44;5039903;28;20508;-67
2021/08/31 04:40:35;;;;;;;58.83;10.00;;;;;;;13.92;100.00;150978.53;5052311;28;20021;-67
2021/08/31 04:43:00;;;;;;;48.40;10.63;;;;;;;13.91;100.00;150977.25;5039823;28;20032;-67
2021/08/31 04:45:26;;;;;;;59.73;10.63;;;;;;;13.88;100.00;150969.47;5050865;28;20269;-67
2021/08/31 04:47:52;;;;;;;66.23;10.83;;;;;;;13.91;100.00;150975.94;5039963;28;20017;-67
2021/08/31 04:50:17;;;;;;;65.83;11.83;;;;;;;13.94;100.00;150985.06;5050677;28;20039;-66
2021/08/31 04:52:43;;;;;;;82.03;11.93;;;;;;;13.94;100.00;150985.06;5055530;28;20187;-65
2021/08/31 04:55:09;;;;;;;63.57;10.90;;;;;;;13.95;100.00;150986.38;5052377;28;20260;-67
2021/08/31 04:57:35;;;;;;;60.70;11.43;;;;;;;13.95;100.00;150987.66;5049168;28;20282;-67
2021/08/31 05:00:00;;;;;;;54.03;10.90;;;;;;;13.96;100.00;150990.25;5054836;28;20052;-67
2021/08/31 05:02:26;;;;;;;63.97;11.63;;;;;;;13.93;100.00;150982.47;5050145;28;20024;-67
2021/08/31 05:04:51;;;;;;;54.97;12.03;;;;;;;13.95;100.00;150987.66;5049680;28;20072;-67
2021/08/31 05:07:17;;;;;;;57.23;12.33;;;;;;;13.86;100.00;150961.59;5040592;28;20469;-67
2021/08/31 05:09:43;;;;;;;74.60;13.07;;;;;;;13.82;100.00;150951.22;5045063;28;20100;-67
2021/08/31 05:12:09;;;;;;;59.33;13.43;;;;;;;13.86;100.00;150960.31;5039360;28;20409;-67
2021/08/31 05:14:35;;;;;;;71.60;12.43;;;;;;;13.88;100.00;150966.78;5043988;28;20111;-67
2021/08/31 05:17:02;;;;;;;63.00;12.27;;;;;;;13.89;100.00;150628.06;5039085;28;20128;-67
2021/08/31 05:19:27;;;;;;;56.83;13.77;;;;;;;13.97;100.00;150647.53;5043157;28;20104;-67
2021/08/31 05:21:53;;;;;;;61.07;14.00;;;;;;;14.00;100.00;150655.28;5039451;28;20107;-67
2021/08/31 05:24:19;;;;;;;61.03;13.17;;;;;;;13.94;100.00;150299.72;5042301;28;20068;-67
2021/08/31 05:26:44;;;;;;;62.73;13.30;;;;;;;14.01;100.00;149976.47;5038817;28;20108;-67
2021/08/31 05:29:13;;;;;;;61.17;13.00;;;;;;;13.95;100.00;149619.75;5044438;28;20032;-67
2021/08/31 05:31:41;;;;;;;60.63;13.00;;;;;;;14.02;100.00;149979.06;5059163;28;20020;-67
2021/08/31 05:34:07;;;;;;;62.20;13.53;;;;;;;14.05;100.00;149986.84;5058944;28;20063;-67
2021/08/31 05:36:32;;;;;;;61.57;13.17;;;;;;;13.98;100.00;149626.19;5047368;28;20053;-67
2021/08/31 05:38:58;;;;;;;50.97;13.77;;;;;;;13.93;100.00;148589.75;5042734;28;20195;-67
2021/08/31 05:41:24;;;;;;;54.77;13.27;;;;;;;13.97;100.00;147919.03;5047394;28;20075;-67
2021/08/31 05:43:49;;;;;;;51.10;11.73;;;;;;;14.08;100.00;147604.63;5041634;28;20641;-67
2021/08/31 05:46:15;;;;;;;39.03;11.90;;;;;;;14.15;100.00;147621.13;5047349;28;20029;-67
2021/08/31 05:48:40;;;;;;;36.90;12.10;;;;;;;14.07;100.00;146578.88;5040102;28;20605;-67
2021/08/31 05:51:08;;;;;;;42.23;12.43;;;;;;;14.06;100.00;146235.38;5058490;28;20276;-68
2021/08/31 05:53:33;;;;;;;34.27;10.93;;;;;;;14.08;100.00;146581.41;5047088;28;20489;-68
2021/08/31 05:55:59;;;;;;;33.33;11.20;;;;;;;14.22;100.00;145934.56;5047415;28;20025;-68
2021/08/31 05:58:24;;;;;;;35.27;10.97;;;;;;;14.50;100.00;144637.88;5038933;28;20273;-68
2021/08/31 06:00:50;;;;;;;27.77;10.20;;;;;;;14.84;100.00;143697.56;5046757;28;20068;-68
2021/08/31 06:03:15;;;;;;;27.53;10.10;;;;;;;15.20;100.00;138669.56;5039047;28;20375;-68
2021/08/31 06:05:41;;;;;;;26.53;9.90;;;;;;;16.07;100.00;126263.66;5047498;28;20106;-69
2021/08/31 06:08:06;;;;;;;23.87;8.97;;;;;;;16.75;100.00;82413.59;5058023;28;20017;-70
2021/08/31 06:10:32;;;;;;;21.67;8.93;;;;;;;17.96;100.00;-954.25;5050589;28;20104;-70
2021/08/31 06:13:00;;;;;;;19.93;7.87;;;;;;;17.96;100.00;-19632.59;5044484;28;20164;-70
2021/08/31 06:15:26;;;;;;;16.17;7.50;;;;;;;18.91;100.00;-19656.84;5051220;28;20082;-73
2021/08/31 06:17:52;;;;;;;17.00;6.67;;;;;;;18.78;100.00;-19653.47;5043114;28;20025;-72
2021/08/31 06:20:17;;;;;;;15.45;7.30;;;;;;;18.93;100.00;-19657.50;5046879;28;20025;-74
2021/08/31 06:22:44;;;;;;;14.98;6.55;;;;;;;19.11;100.00;-19662.06;5043060;28;20505;-74
2021/08/31 06:25:10;;;;;;;13.77;6.45;;;;;;;19.71;100.00;-19677.41;5045626;28;20039;-71
2021/08/31 06:27:35;;;;;;;15.75;6.85;;;;;;;19.13;100.00;-19662.44;5042704;28;20583;-72
2021/08/31 06:30:01;;;;;;;27.58;7.32;;;;;;;19.65;100.00;-19675.84;5056537;28;20534;-72
2021/08/31 06:32:27;;;;;;;15.10;6.95;;;;;;;19.69;100.00;-19676.91;5062616;28;20047;-72
2021/08/31 06:34:52;;;;;;;16.08;6.78;;;;;;;19.87;100.00;-19681.44;5059328;28;20431;-72
2021/08/31 06:37:18;;;;;;;18.23;6.97;;;;;;;20.58;100.00;-19699.53;5042496;28;20040;-72
2021/08/31 06:39:43;;;;;;;13.50;5.93;;;;;;;20.62;100.00;-19700.69;5051562;28;20032;-72
2021/08/31 06:42:09;;;;;;;13.95;5.95;;;;;;;20.72;100.00;-19703.16;5044577;28;20091;-72
2021/08/31 06:44:34;;;;;;;18.58;6.65;;;;;;;21.10;100.00;-19712.91;5056880;28;20452;-72
2021/08/31 06:47:00;;;;;;;13.90;5.72;;;;;;;21.60;100.00;-19725.75;5045006;28;20035;-72
2021/08/31 06:49:25;;;;;;;13.38;5.47;;;;;;;22.44;100.00;-19747.03;5049022;28;20098;-72
2021/08/31 06:51:51;;;;;;;11.48;5.13;;;;;;;21.74;100.00;-19729.25;5044463;28;20052;-73
2021/08/31 06:54:16;;;;;;;16.67;6.45;;;;;;;21.69;100.00;-19727.97;5051771;28;20036;-74
2021/08/31 06:56:42;;;;;;;10.95;5.60;;;;;;;21.22;100.00;-19715.91;5045284;28;20021;-74
2021/08/31 06:59:07;;;;;;;11.18;5.57;;;;;;;20.33;100.00;-19693.16;5046396;28;20481;-74
2021/08/31 07:01:34;;;;;;;12.50;5.70;;;;;;;19.58;100.00;-19674.03;5044766;28;20100;-75
2021/08/31 07:04:00;;;;;;;11.27;5.30;;;;;;;19.76;100.00;-19678.72;5045200;28;20066;-74
2021/08/31 07:06:25;;;;;;;12.13;5.70;;;;;;;20.74;100.00;-19703.81;5044949;28;20256;-74
2021/08/31 07:08:50;;;;;;;11.80;5.53;;;;;;;20.69;100.00;-19702.38;5044093;28;20420;-74
2021/08/31 07:11:16;;;;;;;11.93;5.18;;;;;;;21.23;100.00;-19716.28;5044817;28;20098;-73
2021/08/31 07:13:41;;;;;;;11.70;5.93;;;;;;;20.57;100.00;-19699.25;5043493;28;20442;-74
2021/08/31 07:16:07;;;;;;;13.20;5.70;;;;;;;22.39;100.00;-19745.72;5044651;28;20032;-74
2021/08/31 07:18:33;;;;;;;11.35;5.57;;;;;;;21.80;100.00;-19730.69;5042277;28;20055;-74
2021/08/31 07:20:58;;;;;;;11.48;5.30;;;;;;;21.87;100.00;-19732.50;5060673;28;20029;-74
2021/08/31 07:23:24;;;;;;;10.10;4.93;;;;;;;22.63;100.00;-19751.97;5043438;28;20067;-74
2021/08/31 07:25:49;;;;;;;10.05;4.90;;;;;;;22.37;100.00;-19745.22;5046118;28;20600;-72
2021/08/31 07:28:15;;;;;;;10.50;4.90;;;;;;;22.47;100.00;-19747.81;5042768;28;20186;-72
2021/08/31 07:30:41;;;;;;;9.75;4.70;;;;;;;22.08;100.00;-19737.97;5060449;28;20132;-72
2021/08/31 07:33:08;;;;;;;9.30;4.10;;;;;;;22.09;100.00;-19738.09;5062416;28;20104;-72
2021/08/31 07:35:34;;;;;;;8.43;3.67;;;;;;;22.79;100.00;-19756.09;5051885;28;20102;-74
2021/08/31 07:38:00;;;;;;;8.57;3.83;;;;;;;22.59;100.00;-19750.91;5041915;28;20029;-75
2021/08/31 07:40:26;;;;;;;8.43;3.45;;;;;;;23.53;100.00;-19774.88;5049229;28;20067;-75
2021/08/31 07:42:52;;;;;;;8.60;3.60;;;;;;;24.77;100.00;-19806.31;5055369;28;20021;-75
2021/08/31 07:45:19;;;;;;;6.40;3.08;;;;;;;23.44;100.00;-19772.56;5052850;28;20598;-76
2021/08/31 07:47:44;;;;;;;6.15;3.05;;;;;;;23.18;100.00;-19765.94;5041656;28;20104;-75
2021/08/31 07:50:10;;;;;;;7.70;3.08;;;;;;;23.81;100.00;-19782.00;5049535;28;20292;-74
2021/08/31 07:52:36;;;;;;;7.25;2.90;;;;;;;23.77;100.00;-19780.97;5046568;28;20048;-75
2021/08/31 07:55:07;;;;;;;7.97;2.85;;;;;;;24.75;100.00;-19805.78;5045588;28;20493;-74
2021/08/31 07:57:34;;;;;;;9.68;2.78;;;;;;;24.10;100.00;-19789.25;5040573;28;20107;-75
2021/08/31 08:00:00;;;;;;;9.32;2.60;;;;;;;24.93;99.22;-19810.44;5044683;28;20029;-75
2021/08/31 08:02:25;;;;;;;5.95;2.70;;;;;;;24.08;100.00;-19788.72;5042009;28;20493;-77
2021/08/31 08:04:58;;;;;;;4.97;2.05;;;;;;;23.63;100.00;-19777.34;5043908;28;20585;-75
2021/08/31 08:07:24;;;;;;;6.18;2.45;;;;;;;24.97;100.00;-19811.34;5041334;28;20021;-75
2021/08/31 08:09:50;;;;;;;5.53;2.17;;;;;;;24.37;96.56;-19796.22;5042765;28;20037;-78
2021/08/31 08:12:15;;;;;;;6.60;2.47;;;;;;;25.04;100.00;-19813.28;5039966;28;20025;-75
2021/08/31 08:14:41;;;;;;;8.57;2.25;;;;;;;24.72;100.00;-19805.16;5041319;28;20465;-77
2021/08/31 08:17:06;;;;;;;6.13;2.22;;;;;;;25.88;96.62;-19834.47;5040236;28;20192;-75
2021/08/31 08:19:32;;;;;;;4.90;2.10;;;;;;;26.82;83.99;-19858.31;5053036;28;20112;-75
2021/08/31 08:21:57;;;;;;;5.47;2.40;;;;;;;25.80;74.39;-19832.53;5044855;28;20170;-79
2021/08/31 08:24:23;;;;;;;4.60;2.10;;;;;;;25.96;82.18;-19836.53;5048354;28;20290;-76
2021/08/31 08:26:51;;;;;;;5.82;2.40;;;;;;;26.71;80.09;-19855.59;5045681;28;20051;-77
2021/08/31 08:29:17;;;;;;;6.25;2.35;;;;;;;26.04;84.94;-19838.59;5042342;28;20147;-76
2021/08/31 08:31:45;;;;;;;6.15;2.05;;;;;;;25.59;84.48;-19827.09;5058755;28;20111;-76
2021/08/31 08:34:11;;;;;;;5.32;2.20;;;;;;;25.69;87.49;-19829.81;5060479;28;20535;-76
2021/08/31 08:36:36;;;;;;;4.85;2.10;;;;;;;24.54;86.83;-19800.63;5050242;28;20154;-79
2021/08/31 08:39:02;;;;;;;5.28;2.28;;;;;;;24.84;91.94;-19808.13;5048349;28;20111;-77
2021/08/31 08:41:28;;;;;;;6.13;2.13;;;;;;;25.60;86.42;-19827.50;5044865;28;20501;-77
2021/08/31 08:43:58;;;;;;;4.85;1.92;;;;;;;26.45;81.27;-19848.91;5042675;28;20248;-76
2021/08/31 08:46:25;;;;;;;6.63;2.20;;;;;;;25.55;87.00;-19826.06;5048952;28;20500;-78
2021/08/31 08:48:51;;;;;;;4.93;2.05;;;;;;;26.29;79.03;-19845.03;5055576;28;20386;-77
2021/08/31 08:51:20;;;;;;;4.90;1.88;;;;;;;26.11;76.15;-19840.38;5053707;28;20036;-77
2021/08/31 08:53:46;;;;;;;4.40;2.17;;;;;;;26.54;80.62;-19851.34;5042342;28;20036;-76
2021/08/31 08:56:11;;;;;;;4.30;1.90;;;;;;;24.66;79.04;-19803.59;5047468;28;20501;-78
2021/08/31 08:58:37;;;;;;;5.35;2.05;;;;;;;25.72;80.24;-19830.47;5041472;28;20037;-77
2021/08/31 09:01:06;;;;;;;4.32;1.52;;;;;;;26.34;78.23;-19846.06;5046859;28;20024;-76
2021/08/31 09:03:37;;;;;;;6.90;1.95;;;;;;;27.26;70.58;-19869.50;5041824;28;20055;-77
2021/08/31 09:06:03;;;;;;;;;;;;;;;26.81;66.20;-19858.03;5042205;28;20222;-78
2021/08/31 09:08:29;;;;;;;5.47;1.88;;;;;;;27.33;63.50;-19871.19;5042654;28;19988;-77
2021/08/31 09:10:55;;;;;;;5.85;2.13;;;;;;;27.12;62.34;-19866.03;5044287;28;20112;-77
2021/08/31 09:13:23;;;;;;;6.65;1.90;;;;;;;27.00;66.70;-19862.81;5041219;28;20094;-77
2021/08/31 09:15:48;;;;;;;4.30;1.75;;;;;;;26.54;66.16;-19851.22;5057103;28;20025;-77
2021/08/31 09:18:19;;;;;;;6.30;1.83;;;;;;;27.53;71.15;-19876.34;5043140;28;20330;-77
2021/08/31 09:21:04;;;;;;;4.53;1.95;;;;;;;26.70;66.75;-19855.34;5055632;28;20580;-78
2021/08/31 09:23:35;;;;;;;6.00;2.03;;;;;;;26.84;70.94;-19858.94;5061900;28;20024;-78
2021/08/31 09:26:06;;;;;;;5.20;1.95;;;;;;;25.80;74.83;-19832.38;5044652;28;20574;-78
2021/08/31 09:28:38;;;;;;;5.97;2.10;;;;;;;26.90;72.88;-19860.38;5050593;28;20017;-78
2021/08/31 09:31:19;;;;;;;4.85;1.77;;;;;;;27.35;66.49;-19871.69;5053573;28;20048;-78
2021/08/31 09:33:56;;;;;;;;;;;;;;;26.79;68.71;-19857.53;5065495;28;20028;-77
2021/08/31 09:36:24;;;;;;;9.32;1.90;;;;;;;27.17;71.88;-19867.19;5054931;28;19921;-77
2021/08/31 09:39:02;;;;;;;6.85;2.28;;;;;;;27.36;66.17;-19871.94;5045113;28;20036;-77
2021/08/31 09:41:37;;;;;;;5.53;2.20;;;;;;;27.94;63.22;-19886.75;5048051;28;20452;-77
2021/08/31 09:44:23;;;;;;;4.68;1.60;;;;;;;28.38;65.21;-19897.81;5059241;28;20047;-78
2021/08/31 09:47:00;;;;;;;4.53;1.77;;;;;;;27.66;63.15;-19879.69;5063566;28;20076;-78
2021/08/31 09:49:39;;;;;;;5.68;1.92;;;;;;;27.84;63.84;-19884.19;5064905;28;20101;-78
2021/08/31 09:52:22;;;;;;;4.28;1.90;;;;;;;27.30;65.26;-19870.53;5069225;28;20043;-77
2021/08/31 09:54:49;;;;;;;5.22;1.90;;;;;;;26.56;69.00;-19851.75;5055441;28;20045;-77
2021/08/31 09:57:35;;;;;;;5.70;2.20;;;;;;;27.30;67.29;-19870.53;5049537;28;20028;-77
2021/08/31 10:00:06;;;;;;;7.22;2.08;;;;;;;26.46;69.87;-19849.28;5058288;28;20156;-77
2021/08/31 10:02:32;;;;;;;4.18;2.20;;;;;;;26.84;68.78;-19858.94;5054662;28;20032;-78
2021/08/31 10:04:58;;;;;;;3.95;1.80;;;;;;;26.38;65.95;-19847.09;5062935;28;20508;-77
2021/08/31 10:07:24;;;;;;;4.95;2.00;;;;;;;26.95;69.88;-19861.53;5063011;28;20036;-77
2021/08/31 10:09:50;;;;;;;5.07;1.88;;;;;;;27.98;64.72;-19887.78;5058893;28;20043;-76
2021/08/31 10:12:20;;;;;;;6.90;2.30;;;;;;;26.10;70.31;-19840.00;5057365;28;20110;-75
2021/08/31 10:14:46;;;;;;;5.38;2.28;;;;;;;25.11;83.43;-19814.97;5046763;28;20036;-73
2021/08/31 10:17:12;;;;;;;4.63;2.10;;;;;;;24.24;91.67;-19792.88;5045996;28;20178;-72
2021/08/31 10:19:42;;;;;;;5.78;1.90;;;;;;;26.17;75.19;-19841.94;5051094;28;20036;-73
2021/08/31 10:22:12;;;;;;;4.25;1.85;;;;;;;26.30;81.55;-19845.16;5044942;28;20025;-72
2021/08/31 10:24:45;;;;;;;4.75;2.22;;;;;;;26.39;74.61;-19847.34;5060807;28;20028;-71
2021/08/31 10:27:39;;;;;;;4.97;2.25;;;;;;;25.10;79.03;-19814.72;5048082;28;20100;-70
2021/08/31 10:30:37;;;;;;;3.95;1.73;;;;;;;23.24;94.91;-19767.50;5046823;28;20481;-70
2021/08/31 10:33:21;;;;;;;4.40;2.40;;;;;;;22.17;100.00;-19740.28;5024952;28;20112;-69
2021/08/31 10:35:51;;;;;;;7.95;2.60;;;;;;;23.58;100.00;-19776.19;5051623;28;20033;-70
2021/08/31 10:38:16;;;;;;;4.32;1.98;;;;;;;24.49;90.29;-19799.34;5055958;28;20033;-69
2021/08/31 10:40:45;;;;;;;7.80;2.88;;;;;;;25.06;93.05;-19813.69;5049669;28;20037;-70
2021/08/31 10:43:19;;;;;;;5.40;1.80;;;;;;;24.03;88.66;-19787.56;5053790;28;20040;-69
2021/08/31 10:45:58;;;;;;;4.45;1.90;;;;;;;24.68;89.32;-19803.97;5046398;28;20254;-69
2021/08/31 10:48:34;;;;;;;5.15;2.05;;;;;;;23.96;83.33;-19785.88;5059048;28;20396;-69
2021/08/31 10:51:05;;;;;;;4.70;2.20;;;;;;;23.49;91.84;-19773.72;5051118;28;20394;-69
2021/08/31 10:53:49;;;;;;;5.65;2.50;;;;;;;24.87;84.45;-19808.91;5052167;28;20032;-69
2021/08/31 10:56:43;;;;;;;4.40;1.90;;;;;;;23.60;89.00;-19776.56;5049525;28;20096;-69
2021/08/31 10:59:32;;;;;;;5.68;1.90;;;;;;;22.52;93.22;-19749.09;5048479;28;20040;-69
2021/08/31 11:01:57;;;;;;;4.95;1.95;;;;;;;22.29;100.00;-19743.16;5047166;28;20060;-69
2021/08/31 11:04:32;;;;;;;5.38;2.17;;;;;;;22.55;100.00;-19749.88;5047039;28;20087;-69
2021/08/31 11:06:59;;;;;;;4.75;2.00;;;;;;;22.91;100.00;-19759.09;5047425;28;20031;-68
2021/08/31 11:09:26;;;;;;;4.78;2.00;;;;;;;23.34;89.17;-19770.09;5049822;28;20021;-68
2021/08/31 11:12:09;;;;;;;5.20;2.30;;;;;;;23.25;82.06;-19767.75;5065926;28;20170;-68